Seward, AK

10:55 AM AKDT on October 20, 2014 (GMT -0800)
Oak Street Forest Acres Seward Alaska | Change Station
CLOSE
Current Station
Personal Weather Station
Location: Seward, AK
Elevation: 144 ft
Nearby Weather Stations

Elev 144 ft 60.14 °N, 149.44 °W | Updated 5 seconds ago

Mostly Cloudy
Mostly Cloudy
34.9 °F
Feels Like 35 °F
N
0.0
Wind Variable Wind from SW

Today
High -- | Low -- °F
--% Chance of Precip.
Yesterday
High -- | Low -- °F
Precip. -- in
8:50 AM 6:33 PM
Waning Crescent, 9% visible
Pressure 28.95 in
Visibility 10.0 miles
Clouds Scattered Clouds 4600 ft
Mostly Cloudy 6500 ft
Windchill 35 °F
Dew Point 31 °F
Humidity 87%
Rainfall 0.00 in
Snow Depth 0 in , 1 in
UV 15.0 out of 12
Pollen Not available.
Air Quality Not available.
Flu Activity Sporadic
METAR PAWD 201753Z AUTO 01009KT 10SM SCT046 BKN065 03/00 A2895 RMK AO2 SLP802 60000 T00280000 10033 20028 53004 TSNO

More Conditions Fewer Conditions

Pressure 28.95 in
Visibility 10.0 miles
Clouds Scattered Clouds 4600 ft
Mostly Cloudy 6500 ft
Windchill 35 °F
Dew Point 31 °F
Humidity 87%
Rainfall 0.00 in
Snow Depth 0 in , 1 in
UV 15.0 out of 12
Pollen Not available.
Air Quality Not available.
Flu Activity Sporadic
METAR PAWD 201753Z AUTO 01009KT 10SM SCT046 BKN065 03/00 A2895 RMK AO2 SLP802 60000 T00280000 10033 20028 53004 TSNO

More Conditions Fewer Conditions

10-Day Weather Forecast

Almanac

Astronomy

Oct. 20, 2014 Rise Set
Actual Time 8:50 AM AKDT 6:33 PM AKDT
Civil Twilight 8:07 AM AKDT 7:16 PM AKDT
Nautical Twilight 7:18 AM AKDT 8:04 PM AKDT
Astronomical Twilight 6:30 AM AKDT 8:53 PM AKDT
Moon 5:04 AM AKDT 5:38 PM AKDT
Length of Visible Light 11h 08m
Length of Day
9h 42m
Waning Crescent, 9% of the Moon is Illuminated
Today
Waning Crescent
Oct 23
New
Oct 30
First Quarter
Nov 6
Full
Nov 14
Last Quarter

Today's Extremes

State Highs State Lows

Community

WunderPhotos

Upload Photos

1,763,463 photos uploaded!

Nearby

Snow Depth

Station Depth Elevation
Grouse Creek Divide 0 in 700 ft
Cooper Lake 1 in 1200 ft
Summit Creek 5 in 1400 ft
Grandview 6 in 1100 ft
Turnagain Pass 11 in 1880 ft

Earthquake Activity

City Distance Mag. Time & Date
No recent earthquake activity has been reported nearby.
Minimum magnitude displayed is 2.5.

Coastal Water Temperatures

Place Temperature
No Stations Reporting

Nearby Weather Stations